createdAt,value
2022-10-07T00:01:08.517Z,98559.78
2022-10-07T00:03:37.021Z,98559.13
2022-10-07T00:06:13.548Z,98561.38
2022-10-07T00:08:43.851Z,98579.16
2022-10-07T00:11:21.706Z,98564.94
2022-10-07T00:13:54.986Z,98570.94
2022-10-07T00:16:28.510Z,98564.81
2022-10-07T00:18:58.639Z,98572.56
2022-10-07T00:21:28.278Z,98561.88
2022-10-07T00:23:56.796Z,98561.78
2022-10-07T00:26:26.839Z,98559.03
2022-10-07T00:28:56.025Z,98566.25
2022-10-07T00:31:29.054Z,98561.41
2022-10-07T00:33:57.724Z,98565.34
2022-10-07T00:36:32.269Z,98561.44
2022-10-07T00:39:02.446Z,98561.53
2022-10-07T00:41:36.824Z,98563.16
2022-10-07T00:44:32.090Z,98560.56
2022-10-07T00:47:09.253Z,98558.72
2022-10-07T00:49:44.700Z,98555.97
2022-10-07T00:52:13.846Z,98567.06
2022-10-07T00:54:42.154Z,98561.63
2022-10-07T00:57:10.529Z,98550.34
2022-10-07T00:59:40.336Z,98546.13
2022-10-07T01:02:10.384Z,98543.91
2022-10-07T01:04:39.285Z,98545.03
2022-10-07T01:07:07.754Z,98551.34
2022-10-07T01:09:36.177Z,98554.16
2022-10-07T01:12:33.065Z,98549.47
2022-10-07T01:15:03.425Z,98551.50
2022-10-07T01:17:40.367Z,98552.22
2022-10-07T01:20:30.182Z,98566.41
2022-10-07T01:23:36.039Z,98561.59
2022-10-07T01:26:15.159Z,98556.03
2022-10-07T01:28:54.338Z,98553.28
2022-10-07T01:31:25.730Z,98551.72
2022-10-07T01:33:54.144Z,98555.25
2022-10-07T01:36:24.831Z,98543.69
2022-10-07T01:38:57.036Z,98539.34
2022-10-07T01:41:26.571Z,98545.28
2022-10-07T01:43:55.121Z,98539.13
2022-10-07T01:46:25.095Z,98539.19
2022-10-07T01:48:55.309Z,98547.66
2022-10-07T01:51:28.742Z,98535.09
2022-10-07T01:54:11.891Z,98540.38
2022-10-07T01:57:21.207Z,98539.03
2022-10-07T02:00:01.369Z,98543.31
2022-10-07T02:03:13.107Z,98540.09
2022-10-07T02:05:54.985Z,98532.19
2022-10-07T02:08:34.062Z,98538.00
2022-10-07T02:11:09.464Z,98534.97
2022-10-07T02:14:05.974Z,98547.19
2022-10-07T02:17:19.471Z,98558.75
2022-10-07T02:19:50.075Z,98549.13
2022-10-07T02:22:19.927Z,98554.38
2022-10-07T02:24:48.385Z,98560.19
2022-10-07T02:27:19.447Z,98560.41
2022-10-07T02:29:54.756Z,98563.53
2022-10-07T02:32:24.090Z,98569.53
2022-10-07T02:34:55.467Z,98561.16
2022-10-07T02:37:27.657Z,98560.13
2022-10-07T02:39:56.464Z,98566.28
2022-10-07T02:42:41.713Z,98568.69
2022-10-07T02:45:24.519Z,98568.06
2022-10-07T02:48:34.051Z,98576.22
2022-10-07T02:51:04.318Z,98557.72
2022-10-07T02:53:32.737Z,98573.41
2022-10-07T02:56:01.446Z,98572.03
2022-10-07T02:58:31.065Z,98583.09
2022-10-07T03:01:01.601Z,98582.31
2022-10-07T03:03:30.652Z,98583.25
2022-10-07T03:06:06.035Z,98580.53
2022-10-07T03:08:36.698Z,98579.41
2022-10-07T03:11:05.087Z,98567.41
2022-10-07T03:13:35.456Z,98569.63
2022-10-07T03:16:05.642Z,98573.81
2022-10-07T03:18:34.828Z,98578.25
2022-10-07T03:21:10.559Z,98571.44
2022-10-07T03:23:39.218Z,98581.03
2022-10-07T03:26:07.806Z,98567.38
2022-10-07T03:28:37.893Z,98568.09
2022-10-07T03:31:09.072Z,98569.00
2022-10-07T03:33:40.436Z,98573.81
2022-10-07T03:36:10.370Z,98575.75
2022-10-07T03:38:41.584Z,98574.72
2022-10-07T03:41:12.620Z,98568.94
2022-10-07T03:43:41.342Z,98574.41
2022-10-07T03:46:11.627Z,98568.94
2022-10-07T03:48:40.950Z,98580.13
2022-10-07T03:51:09.445Z,98580.84
2022-10-07T03:53:40.756Z,98577.00
2022-10-07T03:56:10.268Z,98576.22
2022-10-07T03:58:42.021Z,98577.97
2022-10-07T04:01:15.305Z,98580.56
2022-10-07T04:03:50.683Z,98578.47
2022-10-07T04:06:19.723Z,98586.44
2022-10-07T04:08:52.707Z,98580.06
2022-10-07T04:11:22.248Z,98590.00
2022-10-07T04:13:53.675Z,98595.91
2022-10-07T04:16:24.652Z,98581.81
2022-10-07T04:18:56.942Z,98587.44
2022-10-07T04:21:27.206Z,98587.06
2022-10-07T04:23:55.882Z,98590.09
2022-10-07T04:26:24.424Z,98595.56
2022-10-07T04:28:52.936Z,98594.31
2022-10-07T04:31:24.288Z,98595.44
2022-10-07T04:33:59.823Z,98591.72
2022-10-07T04:36:35.803Z,98595.44
2022-10-07T04:39:08.228Z,98586.63
2022-10-07T04:41:39.505Z,98589.03
2022-10-07T04:44:13.308Z,98597.19
2022-10-07T04:46:50.268Z,98599.28
2022-10-07T04:49:19.522Z,98595.88
2022-10-07T04:51:48.096Z,98593.59
2022-10-07T04:54:17.133Z,98602.28
2022-10-07T04:56:51.124Z,98597.63
2022-10-07T04:59:24.459Z,98598.16
2022-10-07T05:01:55.665Z,98609.53
2022-10-07T05:04:24.931Z,98616.38
2022-10-07T05:06:54.935Z,98606.88
2022-10-07T05:09:23.507Z,98605.47
2022-10-07T05:11:57.887Z,98617.69
2022-10-07T05:14:26.271Z,98618.81
2022-10-07T05:16:57.129Z,98614.56
2022-10-07T05:19:29.321Z,98617.00
2022-10-07T05:21:57.818Z,98611.47
2022-10-07T05:24:27.411Z,98622.56
2022-10-07T05:26:55.996Z,98624.09
2022-10-07T05:29:24.511Z,98617.72
2022-10-07T05:31:55.317Z,98620.38
2022-10-07T05:34:27.328Z,98622.81
2022-10-07T05:36:56.403Z,98623.25
2022-10-07T05:39:24.897Z,98616.88
2022-10-07T05:41:57.967Z,98625.50
2022-10-07T05:44:32.676Z,98634.03
2022-10-07T05:47:03.491Z,98628.75
2022-10-07T05:49:33.134Z,98626.22
2022-10-07T05:52:01.611Z,98627.03
2022-10-07T05:54:31.005Z,98626.38
2022-10-07T05:57:00.598Z,98635.69
2022-10-07T05:59:31.606Z,98629.84
2022-10-07T06:02:01.482Z,98628.53
2022-10-07T06:04:31.639Z,98628.06
2022-10-07T06:07:00.946Z,98626.59
2022-10-07T06:09:48.252Z,98621.53
2022-10-07T06:12:37.272Z,98628.81
2022-10-07T06:15:10.741Z,98621.13
2022-10-07T06:17:45.714Z,98619.31
2022-10-07T06:20:17.810Z,98620.00
2022-10-07T06:22:47.406Z,98619.19
2022-10-07T06:25:17.611Z,98622.88
2022-10-07T06:27:52.768Z,98620.00
2022-10-07T06:30:22.972Z,98629.69
2022-10-07T06:32:52.114Z,98631.25
2022-10-07T06:35:20.951Z,98623.19
2022-10-07T06:37:51.716Z,98623.97
2022-10-07T06:40:20.716Z,98630.22
2022-10-07T06:42:49.111Z,98632.50
2022-10-07T06:45:33.697Z,98635.97
2022-10-07T06:48:03.605Z,98636.06
2022-10-07T06:50:32.897Z,98640.25
2022-10-07T06:53:01.967Z,98653.00
2022-10-07T06:55:33.284Z,98650.25
2022-10-07T06:58:06.333Z,98642.59
2022-10-07T07:00:39.270Z,98648.03
2022-10-07T07:03:09.236Z,98645.28
2022-10-07T07:05:42.827Z,98644.66
2022-10-07T07:08:17.508Z,98644.19
2022-10-07T07:10:47.233Z,98649.97
2022-10-07T07:13:15.800Z,98637.28
2022-10-07T07:16:04.113Z,98641.19
2022-10-07T07:18:35.318Z,98626.19
2022-10-07T07:21:08.107Z,98636.81
2022-10-07T07:23:37.456Z,98629.41
2022-10-07T07:26:05.858Z,98622.19
2022-10-07T07:28:35.172Z,98618.59
2022-10-07T07:31:09.671Z,98626.88
2022-10-07T07:33:39.637Z,98633.06
2022-10-07T07:36:16.210Z,98625.34
2022-10-07T07:38:56.045Z,98631.13
2022-10-07T07:41:27.704Z,98628.31
2022-10-07T07:43:58.956Z,98614.03
2022-10-07T07:46:30.043Z,98624.28
2022-10-07T07:48:58.825Z,98610.19
2022-10-07T07:51:28.042Z,98611.81
2022-10-07T07:53:57.604Z,98615.16
2022-10-07T07:56:27.189Z,98612.03
2022-10-07T07:58:56.701Z,98615.34
2022-10-07T08:01:25.312Z,98621.94
2022-10-07T08:03:54.909Z,98618.28
2022-10-07T08:06:23.553Z,98613.72
2022-10-07T08:08:53.896Z,98606.72
2022-10-07T08:11:22.357Z,98616.31
2022-10-07T08:13:52.154Z,98616.88
2022-10-07T08:16:23.495Z,98611.94
2022-10-07T08:18:53.628Z,98611.41
2022-10-07T08:21:23.923Z,98608.91
2022-10-07T08:23:57.732Z,98608.81
2022-10-07T08:26:31.270Z,98604.88
2022-10-07T08:29:01.862Z,98598.91
2022-10-07T08:31:30.506Z,98592.66
2022-10-07T08:33:59.900Z,98584.28
2022-10-07T08:36:29.434Z,98585.53
2022-10-07T08:38:57.863Z,98582.13
2022-10-07T08:41:35.036Z,98580.09
2022-10-07T08:44:21.084Z,98581.44
2022-10-07T08:47:17.758Z,98573.06
2022-10-07T08:50:19.868Z,98583.22
2022-10-07T08:52:51.311Z,98563.63
2022-10-07T08:55:24.669Z,98564.34
2022-10-07T08:58:31.283Z,98554.56
2022-10-07T09:01:27.437Z,98552.16
2022-10-07T09:04:23.007Z,98549.75
2022-10-07T09:07:01.589Z,98556.97
2022-10-07T09:09:41.594Z,98547.94
2022-10-07T09:12:14.856Z,98540.09
2022-10-07T09:14:44.624Z,98537.00
2022-10-07T09:17:19.463Z,98530.91
2022-10-07T09:19:49.709Z,98521.25
2022-10-07T09:22:24.019Z,98515.28
2022-10-07T09:24:56.527Z,98512.38
2022-10-07T09:27:27.097Z,98513.03
2022-10-07T09:29:55.505Z,98502.81
2022-10-07T09:32:24.365Z,98504.31
2022-10-07T09:34:53.153Z,98504.09
2022-10-07T09:37:27.912Z,98503.41
2022-10-07T09:39:58.220Z,98498.34
2022-10-07T09:42:35.720Z,98490.84
2022-10-07T09:45:32.419Z,98492.72
2022-10-07T09:48:19.606Z,98477.56
2022-10-07T09:50:48.417Z,98478.34
2022-10-07T09:53:19.746Z,98465.63
2022-10-07T09:55:48.364Z,98471.06
2022-10-07T09:58:34.724Z,98462.94
2022-10-07T10:01:03.525Z,98463.72
2022-10-07T10:03:33.373Z,98464.59
2022-10-07T10:06:06.755Z,98454.13
2022-10-07T10:08:35.034Z,98456.69
2022-10-07T10:11:05.328Z,98455.97
2022-10-07T10:13:34.545Z,98454.56
2022-10-07T10:16:06.264Z,98447.06
2022-10-07T10:18:41.446Z,98442.91
2022-10-07T10:21:22.270Z,98437.97
2022-10-07T10:24:14.566Z,98433.06
2022-10-07T10:27:07.120Z,98428.19
2022-10-07T10:29:38.490Z,98430.75
2022-10-07T10:32:37.152Z,98422.97
2022-10-07T10:35:13.649Z,98424.59
2022-10-07T10:37:42.822Z,98427.38
2022-10-07T10:40:23.269Z,98421.50
2022-10-07T10:43:22.555Z,98411.56
2022-10-07T10:46:09.981Z,98407.13
2022-10-07T10:49:13.092Z,98405.81
2022-10-07T10:51:48.374Z,98402.19
2022-10-07T10:54:26.661Z,98385.38
2022-10-07T10:57:09.826Z,98377.06
2022-10-07T10:59:44.445Z,98375.25
2022-10-07T11:02:38.802Z,98376.13
2022-10-07T11:05:19.641Z,98375.28
2022-10-07T11:07:51.438Z,98366.72
2022-10-07T11:10:45.284Z,98353.63
2022-10-07T11:13:13.629Z,98360.03
2022-10-07T11:15:51.787Z,98356.25
2022-10-07T11:18:35.714Z,98352.78
2022-10-07T11:21:08.244Z,98344.97
2022-10-07T11:24:02.452Z,98337.56
2022-10-07T11:26:51.273Z,98336.03
2022-10-07T11:29:41.299Z,98331.91
2022-10-07T11:32:31.374Z,98324.59
2022-10-07T11:35:29.397Z,98315.00
2022-10-07T11:38:15.725Z,98321.06
2022-10-07T11:40:45.741Z,98323.00
2022-10-07T11:43:41.438Z,98316.28
2022-10-07T11:46:18.890Z,98311.91
2022-10-07T11:49:11.493Z,98311.47
2022-10-07T11:51:45.480Z,98312.91
2022-10-07T11:54:15.256Z,98315.94
2022-10-07T11:56:51.882Z,98313.13
2022-10-07T11:59:42.334Z,98311.50
2022-10-07T12:02:29.512Z,98306.09
2022-10-07T12:05:02.126Z,98320.88
2022-10-07T12:07:35.295Z,98320.03
2022-10-07T12:10:07.266Z,98307.97
2022-10-07T12:12:46.869Z,98307.44
2022-10-07T12:15:39.911Z,98309.81
2022-10-07T12:18:10.853Z,98306.81
2022-10-07T12:20:53.341Z,98312.72
2022-10-07T12:23:26.180Z,98303.03
2022-10-07T12:26:01.623Z,98300.91
2022-10-07T12:28:35.775Z,98302.47
2022-10-07T12:31:15.790Z,98294.66
2022-10-07T12:33:47.268Z,98292.09
2022-10-07T12:36:25.913Z,98295.66
2022-10-07T12:39:01.052Z,98289.06
2022-10-07T12:41:36.386Z,98287.66
2022-10-07T12:44:39.957Z,98276.97
2022-10-07T12:47:18.636Z,98277.78
2022-10-07T12:49:51.531Z,98282.78
2022-10-07T12:52:33.716Z,98269.22
2022-10-07T12:55:14.148Z,98265.31
2022-10-07T12:57:47.671Z,98267.31
2022-10-07T13:00:16.274Z,98268.25
2022-10-07T13:03:03.699Z,98262.50
2022-10-07T13:05:57.685Z,98258.97
2022-10-07T13:08:44.071Z,98256.88
2022-10-07T13:11:47.533Z,98264.59
2022-10-07T13:14:38.353Z,98250.47
2022-10-07T13:17:21.054Z,98254.97
2022-10-07T13:20:02.074Z,98248.31
2022-10-07T13:22:31.678Z,98250.09
2022-10-07T13:25:01.133Z,98255.31
2022-10-07T13:27:33.525Z,98254.22
2022-10-07T13:30:02.735Z,98246.59
2022-10-07T13:32:32.353Z,98255.03
2022-10-07T13:35:01.910Z,98256.50
2022-10-07T13:37:37.931Z,98254.53
2022-10-07T13:40:25.207Z,98249.25
2022-10-07T13:42:59.563Z,98255.97
2022-10-07T13:45:28.544Z,98251.72
2022-10-07T13:47:57.962Z,98252.41
2022-10-07T13:50:28.057Z,98244.25
2022-10-07T13:52:56.433Z,98251.72
2022-10-07T13:55:31.861Z,98252.50
2022-10-07T13:58:02.239Z,98242.22
2022-10-07T14:00:32.842Z,98249.66
2022-10-07T14:03:02.143Z,98240.25
2022-10-07T14:05:31.264Z,98243.09
2022-10-07T14:08:00.921Z,98241.59
2022-10-07T14:10:30.300Z,98232.97
2022-10-07T14:13:03.619Z,98239.91
2022-10-07T14:15:33.871Z,98240.97
2022-10-07T14:18:06.028Z,98240.41
2022-10-07T14:20:36.245Z,98234.78
2022-10-07T14:23:17.664Z,98233.97
2022-10-07T14:25:49.055Z,98229.69
2022-10-07T14:28:23.713Z,98230.81
2022-10-07T14:31:26.199Z,98234.50
2022-10-07T14:34:17.265Z,98236.69
2022-10-07T14:37:10.962Z,98240.47
2022-10-07T14:39:48.551Z,98234.56
2022-10-07T14:42:28.990Z,98229.13
2022-10-07T14:44:57.467Z,98229.72
2022-10-07T14:47:28.619Z,98231.72
2022-10-07T14:49:58.226Z,98234.09
2022-10-07T14:52:31.870Z,98235.47
2022-10-07T14:55:16.305Z,98226.69
2022-10-07T14:57:45.444Z,98233.75
2022-10-07T15:00:21.878Z,98230.19
2022-10-07T15:02:51.700Z,98234.22
2022-10-07T15:05:20.075Z,98242.03
2022-10-07T15:07:48.960Z,98235.00
2022-10-07T15:10:19.693Z,98233.91
2022-10-07T15:12:48.663Z,98231.91
2022-10-07T15:15:17.598Z,98226.16
2022-10-07T15:17:46.006Z,98223.56
2022-10-07T15:20:15.451Z,98219.84
2022-10-07T15:22:44.354Z,98226.47
2022-10-07T15:25:13.037Z,98219.13
2022-10-07T15:27:41.890Z,98223.38
2022-10-07T15:30:11.148Z,98216.66
2022-10-07T15:32:39.582Z,98217.69
2022-10-07T15:35:08.555Z,98220.03
2022-10-07T15:37:37.682Z,98221.06
2022-10-07T15:40:07.910Z,98211.09
2022-10-07T15:42:36.228Z,98224.81
2022-10-07T15:45:04.957Z,98224.44
2022-10-07T15:47:34.638Z,98225.53
2022-10-07T15:50:03.206Z,98225.22
2022-10-07T15:52:31.681Z,98226.50
2022-10-07T15:55:03.839Z,98235.50
2022-10-07T15:57:35.122Z,98224.16
2022-10-07T16:00:05.160Z,98237.06
2022-10-07T16:02:40.178Z,98223.97
2022-10-07T16:05:10.000Z,98235.44
2022-10-07T16:07:39.187Z,98235.34
2022-10-07T16:10:12.104Z,98233.00
2022-10-07T16:12:42.010Z,98237.06
2022-10-07T16:15:10.744Z,98233.50
2022-10-07T16:17:39.123Z,98234.31
2022-10-07T16:20:11.399Z,98240.44
2022-10-07T16:22:40.085Z,98247.88
2022-10-07T16:25:08.924Z,98241.47
2022-10-07T16:27:56.917Z,98256.47
2022-10-07T16:30:43.954Z,98255.47
2022-10-07T16:33:12.409Z,98261.94
2022-10-07T16:35:40.830Z,98260.66
2022-10-07T16:38:09.336Z,98264.38
2022-10-07T16:40:38.545Z,98270.06
2022-10-07T16:43:06.908Z,98274.44
2022-10-07T16:45:35.304Z,98271.91
2022-10-07T16:48:03.893Z,98277.16
2022-10-07T16:50:32.227Z,98275.59
2022-10-07T16:53:01.634Z,98279.31
2022-10-07T16:55:30.091Z,98285.06
2022-10-07T16:57:58.574Z,98290.84
2022-10-07T17:00:27.461Z,98284.28
2022-10-07T17:02:55.875Z,98292.19
2022-10-07T17:05:24.254Z,98296.94
2022-10-07T17:07:52.728Z,98295.56
2022-10-07T17:10:21.571Z,98294.91
2022-10-07T17:12:50.066Z,98292.88
2022-10-07T17:15:18.697Z,98298.53
2022-10-07T17:17:47.592Z,98310.19
2022-10-07T17:20:16.668Z,98305.78
2022-10-07T17:22:45.464Z,98302.41
2022-10-07T17:25:14.632Z,98310.38
2022-10-07T17:27:44.166Z,98305.63
2022-10-07T17:30:16.248Z,98313.34
2022-10-07T17:32:45.472Z,98317.72
2022-10-07T17:35:13.939Z,98316.69
2022-10-07T17:37:43.454Z,98318.91
2022-10-07T17:40:12.058Z,98308.00
2022-10-07T17:42:40.458Z,98312.59
2022-10-07T17:45:11.571Z,98312.78
2022-10-07T17:47:39.981Z,98314.00
2022-10-07T17:50:08.655Z,98323.84
2022-10-07T17:52:37.645Z,98322.31
2022-10-07T17:55:07.884Z,98324.66
2022-10-07T17:57:36.275Z,98314.75
2022-10-07T18:00:07.148Z,98313.28
2022-10-07T18:02:40.427Z,98324.25
2022-10-07T18:05:09.157Z,98321.22
2022-10-07T18:07:37.604Z,98320.56
2022-10-07T18:10:06.479Z,98320.50
2022-10-07T18:12:53.577Z,98321.31
2022-10-07T18:15:22.616Z,98310.84
2022-10-07T18:17:51.867Z,98323.38
2022-10-07T18:20:22.068Z,98325.44
2022-10-07T18:22:57.599Z,98327.97
2022-10-07T18:25:26.478Z,98326.06
2022-10-07T18:27:55.085Z,98336.38
2022-10-07T18:30:23.680Z,98333.56
2022-10-07T18:32:52.290Z,98326.88
2022-10-07T18:35:20.873Z,98339.09
2022-10-07T18:37:52.117Z,98337.75
2022-10-07T18:40:20.566Z,98336.13
2022-10-07T18:42:50.426Z,98332.59
2022-10-07T18:45:19.372Z,98329.75
2022-10-07T18:47:48.862Z,98325.41
2022-10-07T18:50:17.607Z,98324.00
2022-10-07T18:52:46.051Z,98316.47
2022-10-07T18:55:14.723Z,98323.09
2022-10-07T18:57:43.377Z,98315.91
2022-10-07T19:00:12.859Z,98320.97
2022-10-07T19:02:43.302Z,98320.31
2022-10-07T19:05:11.781Z,98319.13
2022-10-07T19:07:40.592Z,98323.19
2022-10-07T19:10:09.739Z,98326.81
2022-10-07T19:12:56.621Z,98327.72
2022-10-07T19:15:25.025Z,98322.97
2022-10-07T19:17:53.550Z,98325.13
2022-10-07T19:20:22.423Z,98323.78
2022-10-07T19:22:52.545Z,98318.47
2022-10-07T19:25:39.387Z,98328.06
2022-10-07T19:28:08.838Z,98332.81
2022-10-07T19:30:37.801Z,98319.44
2022-10-07T19:33:06.252Z,98312.50
2022-10-07T19:35:35.022Z,98328.81
2022-10-07T19:38:07.680Z,98316.44
2022-10-07T19:40:42.757Z,98324.94
2022-10-07T19:43:11.671Z,98323.13
2022-10-07T19:45:41.245Z,98323.69
2022-10-07T19:48:14.162Z,98327.09
2022-10-07T19:50:43.168Z,98326.63
2022-10-07T19:53:11.609Z,98332.16
2022-10-07T19:55:44.586Z,98330.34
2022-10-07T19:58:13.142Z,98319.47
2022-10-07T20:00:41.606Z,98319.25
2022-10-07T20:03:10.007Z,98320.44
2022-10-07T20:05:40.350Z,98323.19
2022-10-07T20:08:10.493Z,98325.94
2022-10-07T20:10:38.997Z,98322.75
2022-10-07T20:13:07.374Z,98325.72
2022-10-07T20:15:35.686Z,98329.16
2022-10-07T20:18:04.286Z,98324.75
2022-10-07T20:20:33.706Z,98331.03
2022-10-07T20:23:02.621Z,98328.81
2022-10-07T20:25:31.050Z,98327.25
2022-10-07T20:27:59.578Z,98323.38
2022-10-07T20:30:27.963Z,98329.94
2022-10-07T20:32:56.609Z,98323.84
2022-10-07T20:35:25.269Z,98322.47
2022-10-07T20:37:53.594Z,98320.69
2022-10-07T20:40:40.653Z,98319.88
2022-10-07T20:43:09.137Z,98314.50
2022-10-07T20:45:56.503Z,98316.06
2022-10-07T20:48:25.691Z,98329.63
2022-10-07T20:50:55.602Z,98320.47
2022-10-07T20:53:23.924Z,98315.31
2022-10-07T20:55:53.281Z,98315.31
2022-10-07T20:58:21.963Z,98317.00
2022-10-07T21:00:51.202Z,98312.25
2022-10-07T21:03:19.561Z,98306.59
2022-10-07T21:05:47.989Z,98319.09
2022-10-07T21:08:16.388Z,98298.44
2022-10-07T21:10:44.747Z,98306.97
2022-10-07T21:13:15.043Z,98302.59
2022-10-07T21:15:43.590Z,98301.59
2022-10-07T21:18:11.933Z,98299.00
2022-10-07T21:20:56.267Z,98302.16
2022-10-07T21:23:25.157Z,98300.59
2022-10-07T21:25:53.519Z,98304.59
2022-10-07T21:28:22.052Z,98307.78
2022-10-07T21:30:58.633Z,98310.97
2022-10-07T21:33:27.867Z,98303.09
2022-10-07T21:36:07.296Z,98303.53
2022-10-07T21:38:35.794Z,98308.75
2022-10-07T21:41:14.825Z,98305.69
2022-10-07T21:43:44.388Z,98302.16
2022-10-07T21:46:12.998Z,98294.16
2022-10-07T21:48:41.473Z,98298.03
2022-10-07T21:51:10.735Z,98292.78
2022-10-07T21:53:39.129Z,98288.75
2022-10-07T21:56:08.646Z,98289.75
2022-10-07T21:58:37.109Z,98287.50
2022-10-07T22:01:12.561Z,98288.63
2022-10-07T22:03:41.474Z,98281.34
2022-10-07T22:06:12.021Z,98275.56
2022-10-07T22:08:42.854Z,98276.28
2022-10-07T22:11:18.669Z,98287.75
2022-10-07T22:14:00.412Z,98284.97
2022-10-07T22:16:29.120Z,98283.28
2022-10-07T22:18:57.658Z,98283.56
2022-10-07T22:21:28.072Z,98283.38
2022-10-07T22:23:58.036Z,98272.56
2022-10-07T22:26:28.253Z,98283.28
2022-10-07T22:28:57.480Z,98278.31
2022-10-07T22:31:26.730Z,98266.56
2022-10-07T22:33:57.023Z,98273.69
2022-10-07T22:36:25.622Z,98270.06
2022-10-07T22:38:55.875Z,98267.47
2022-10-07T22:41:24.894Z,98265.47
2022-10-07T22:43:53.809Z,98264.56
2022-10-07T22:46:27.171Z,98260.63
2022-10-07T22:48:58.635Z,98262.53
2022-10-07T22:51:30.006Z,98258.56
2022-10-07T22:53:58.458Z,98255.47
2022-10-07T22:56:28.319Z,98261.25
2022-10-07T22:59:00.067Z,98265.34
2022-10-07T23:01:32.014Z,98253.59
2022-10-07T23:04:03.387Z,98250.88
2022-10-07T23:06:33.948Z,98255.84
2022-10-07T23:09:02.852Z,98249.88
2022-10-07T23:11:31.515Z,98251.38
2022-10-07T23:14:00.278Z,98251.75
2022-10-07T23:16:34.315Z,98250.47
2022-10-07T23:19:02.686Z,98240.06
2022-10-07T23:21:34.491Z,98246.63
2022-10-07T23:24:07.842Z,98241.44
2022-10-07T23:26:37.082Z,98245.72
2022-10-07T23:29:05.452Z,98243.34
2022-10-07T23:31:34.169Z,98245.78
2022-10-07T23:34:03.409Z,98238.50
2022-10-07T23:36:31.964Z,98249.50
2022-10-07T23:39:00.702Z,98240.44
2022-10-07T23:41:30.037Z,98235.00
2022-10-07T23:43:59.820Z,98232.88
2022-10-07T23:46:28.364Z,98240.38
2022-10-07T23:48:56.795Z,98238.03
2022-10-07T23:51:26.448Z,98234.91
2022-10-07T23:53:59.271Z,98242.88
2022-10-07T23:56:27.631Z,98226.97
2022-10-07T23:58:56.181Z,98228.34
